sensor_id;sensor_type;location;lat;lon;timestamp;pressure;altitude;pressure_sealevel;temperature;humidity
7940;BME280;4015;48.888;9.226;2023-01-08T00:02:11;156705.94;;;5.80;87.23
7940;BME280;4015;48.888;9.226;2023-01-08T00:04:37;156689.41;;;5.74;87.59
7940;BME280;4015;48.888;9.226;2023-01-08T00:07:02;156688.13;;;5.73;87.79
7940;BME280;4015;48.888;9.226;2023-01-08T00:09:28;156711.03;;;5.82;87.55
7940;BME280;4015;48.888;9.226;2023-01-08T00:11:53;156741.63;;;5.94;87.30
7940;BME280;4015;48.888;9.226;2023-01-08T00:14:18;156804.03;;;6.19;86.12
7940;BME280;4015;48.888;9.226;2023-01-08T00:16:44;156842.22;;;6.35;84.99
7940;BME280;4015;48.888;9.226;2023-01-08T00:19:11;156863.91;;;6.43;84.42
7940;BME280;4015;48.888;9.226;2023-01-08T00:21:36;156871.53;;;6.46;84.45
7940;BME280;4015;48.888;9.226;2023-01-08T00:24:02;156876.66;;;6.48;84.24
7940;BME280;4015;48.888;9.226;2023-01-08T00:26:27;156821.88;;;6.27;84.94
7940;BME280;4015;48.888;9.226;2023-01-08T00:28:52;156746.72;;;5.97;86.10
7940;BME280;4015;48.888;9.226;2023-01-08T00:31:18;156713.56;;;5.83;86.77
7940;BME280;4015;48.888;9.226;2023-01-08T00:33:43;156677.94;;;5.69;87.74
7940;BME280;4015;48.888;9.226;2023-01-08T00:36:10;156658.84;;;5.61;88.10
7940;BME280;4015;48.888;9.226;2023-01-08T00:38:36;156681.72;;;5.71;88.21
7940;BME280;4015;48.888;9.226;2023-01-08T00:41:01;156716.09;;;5.84;88.02
7940;BME280;4015;48.888;9.226;2023-01-08T00:43:26;156749.31;;;5.98;87.30
7940;BME280;4015;48.888;9.226;2023-01-08T00:45:52;156777.28;;;6.09;86.87
7940;BME280;4015;48.888;9.226;2023-01-08T00:48:18;156807.84;;;6.21;86.00
7940;BME280;4015;48.888;9.226;2023-01-08T00:50:44;156788.75;;;6.13;85.96
7940;BME280;4015;48.888;9.226;2023-01-08T00:53:09;156773.47;;;6.07;86.48
7940;BME280;4015;48.888;9.226;2023-01-08T00:55:35;156772.19;;;6.07;86.50
7940;BME280;4015;48.888;9.226;2023-01-08T00:58:00;156769.66;;;6.06;86.54
7940;BME280;4015;48.888;9.226;2023-01-08T01:00:25;156731.38;;;5.90;87.05
7940;BME280;4015;48.888;9.226;2023-01-08T01:02:51;156734.03;;;5.91;86.88
7940;BME280;4015;48.888;9.226;2023-01-08T01:05:18;156690.66;;;5.74;87.77
7940;BME280;4015;48.888;9.226;2023-01-08T01:07:43;156691.94;;;5.75;88.08
7940;BME280;4015;48.888;9.226;2023-01-08T01:10:10;156726.31;;;5.88;87.37
7940;BME280;4015;48.888;9.226;2023-01-08T01:12:38;156642.28;;;5.55;88.67
7940;BME280;4015;48.888;9.226;2023-01-08T01:15:09;156652.44;;;5.59;88.63
7940;BME280;4015;48.888;9.226;2023-01-08T01:17:37;156670.31;;;5.66;88.56
7940;BME280;4015;48.888;9.226;2023-01-08T01:20:03;156716.09;;;5.84;87.94
7940;BME280;4015;48.888;9.226;2023-01-08T01:22:31;156700.81;;;5.78;88.05
7940;BME280;4015;48.888;9.226;2023-01-08T01:24:56;156731.38;;;5.90;87.70
7940;BME280;4015;48.888;9.226;2023-01-08T01:27:23;156735.28;;;5.92;87.66
7940;BME280;4015;48.888;9.226;2023-01-08T01:29:48;156758.19;;;6.01;87.29
7940;BME280;4015;48.888;9.226;2023-01-08T01:32:14;156783.69;;;6.11;87.00
7940;BME280;4015;48.888;9.226;2023-01-08T01:34:39;156744.19;;;5.95;87.61
7940;BME280;4015;48.888;9.226;2023-01-08T01:37:05;156790.03;;;6.14;87.45
7940;BME280;4015;48.888;9.226;2023-01-08T01:39:31;156810.38;;;6.22;86.23
7940;BME280;4015;48.888;9.226;2023-01-08T01:41:57;156739.09;;;5.93;86.70
7940;BME280;4015;48.888;9.226;2023-01-08T01:44:43;156750.56;;;5.98;86.58
7940;BME280;4015;48.888;9.226;2023-01-08T01:47:31;156746.72;;;5.97;86.85
7940;BME280;4015;48.888;9.226;2023-01-08T01:52:35;156774.75;;;6.08;86.33
7940;BME280;4015;48.888;9.226;2023-01-08T01:55:02;156846.09;;;6.36;85.12
7940;BME280;4015;48.888;9.226;2023-01-08T01:57:30;156899.56;;;6.58;83.70
7940;BME280;4015;48.888;9.226;2023-01-08T01:59:57;156922.53;;;6.67;83.00
7940;BME280;4015;48.888;9.226;2023-01-08T02:02:23;156933.97;;;6.71;82.56
7940;BME280;4015;48.888;9.226;2023-01-08T02:04:48;156948.00;;;6.77;82.43
7940;BME280;4015;48.888;9.226;2023-01-08T02:09:49;156959.47;;;6.82;82.38
7940;BME280;4015;48.888;9.226;2023-01-08T02:18:13;157007.88;;;7.01;81.25
7940;BME280;4015;48.888;9.226;2023-01-08T02:20:46;157012.97;;;7.03;81.23
7940;BME280;4015;48.888;9.226;2023-01-08T02:28:55;157020.63;;;7.06;80.84
7940;BME280;4015;48.888;9.226;2023-01-08T02:31:24;156987.50;;;6.93;82.07
7940;BME280;4015;48.888;9.226;2023-01-08T02:33:50;156998.94;;;6.97;82.22
7940;BME280;4015;48.888;9.226;2023-01-08T02:44:28;157024.44;;;7.08;82.26
7940;BME280;4015;48.888;9.226;2023-01-08T02:46:58;156996.41;;;6.96;82.70
7940;BME280;4015;48.888;9.226;2023-01-08T02:49:28;157018.09;;;7.05;82.54
7940;BME280;4015;48.888;9.226;2023-01-08T02:51:56;157039.75;;;7.14;82.01
7940;BME280;4015;48.888;9.226;2023-01-08T02:54:25;157019.38;;;7.06;81.96
7940;BME280;4015;48.888;9.226;2023-01-08T02:56:59;157033.41;;;7.11;82.16
7940;BME280;4015;48.888;9.226;2023-01-08T02:59:28;157030.81;;;7.10;82.20
7940;BME280;4015;48.888;9.226;2023-01-08T03:01:55;157034.66;;;7.12;82.55
7940;BME280;4015;48.888;9.226;2023-01-08T03:04:23;157019.38;;;7.06;82.91
7940;BME280;4015;48.888;9.226;2023-01-08T03:06:50;157023.19;;;7.07;82.82
7940;BME280;4015;48.888;9.226;2023-01-08T03:09:16;157014.22;;;7.03;82.89
7940;BME280;4015;48.888;9.226;2023-01-08T03:11:54;157030.81;;;7.10;83.19
7940;BME280;4015;48.888;9.226;2023-01-08T03:14:25;157034.66;;;7.12;82.77
7940;BME280;4015;48.888;9.226;2023-01-08T03:19:22;157052.50;;;7.19;81.73
7940;BME280;4015;48.888;9.226;2023-01-08T03:21:50;157047.41;;;7.17;81.44
7940;BME280;4015;48.888;9.226;2023-01-08T03:24:22;157048.69;;;7.17;81.65
7940;BME280;4015;48.888;9.226;2023-01-08T03:26:51;157047.41;;;7.17;81.86
7940;BME280;4015;48.888;9.226;2023-01-08T03:29:21;157034.66;;;7.12;82.13
7940;BME280;4015;48.888;9.226;2023-01-08T03:31:49;157039.75;;;7.14;82.20
7940;BME280;4015;48.888;9.226;2023-01-08T03:34:18;157034.66;;;7.12;82.30
7940;BME280;4015;48.888;9.226;2023-01-08T03:36:47;157041.00;;;7.14;82.28
7940;BME280;4015;48.888;9.226;2023-01-08T03:39:25;157058.84;;;7.21;81.88
7940;BME280;4015;48.888;9.226;2023-01-08T03:41:56;157049.97;;;7.18;81.72
7940;BME280;4015;48.888;9.226;2023-01-08T03:44:23;157049.97;;;7.18;82.19
7940;BME280;4015;48.888;9.226;2023-01-08T03:46:52;157049.97;;;7.18;81.72
7940;BME280;4015;48.888;9.226;2023-01-08T03:49:20;157044.81;;;7.16;81.82
7940;BME280;4015;48.888;9.226;2023-01-08T03:51:47;157043.56;;;7.15;81.97
7940;BME280;4015;48.888;9.226;2023-01-08T03:54:20;157024.44;;;7.08;82.64
7940;BME280;4015;48.888;9.226;2023-01-08T03:56:47;157006.63;;;7.00;82.42
7940;BME280;4015;48.888;9.226;2023-01-08T03:59:13;157014.22;;;7.03;82.65
7940;BME280;4015;48.888;9.226;2023-01-08T04:01:39;157009.16;;;7.01;82.70
7940;BME280;4015;48.888;9.226;2023-01-08T04:04:05;156997.69;;;6.97;83.07
7940;BME280;4015;48.888;9.226;2023-01-08T04:06:31;156986.25;;;6.92;83.59
7940;BME280;4015;48.888;9.226;2023-01-08T04:08:56;156965.81;;;6.84;84.08
7940;BME280;4015;48.888;9.226;2023-01-08T04:11:21;157001.53;;;6.98;83.12
7940;BME280;4015;48.888;9.226;2023-01-08T04:13:47;156997.69;;;6.97;83.17
7940;BME280;4015;48.888;9.226;2023-01-08T04:16:12;157001.53;;;6.98;83.29
7940;BME280;4015;48.888;9.226;2023-01-08T04:18:37;156992.59;;;6.95;83.63
7940;BME280;4015;48.888;9.226;2023-01-08T04:21:03;157015.56;;;7.04;83.21
7940;BME280;4015;48.888;9.226;2023-01-08T04:23:28;157025.72;;;7.08;82.71
7940;BME280;4015;48.888;9.226;2023-01-08T04:25:53;157006.63;;;7.00;83.33
7940;BME280;4015;48.888;9.226;2023-01-08T04:28:19;157019.38;;;7.06;83.40
7940;BME280;4015;48.888;9.226;2023-01-08T04:30:45;157018.09;;;7.05;83.21
7940;BME280;4015;48.888;9.226;2023-01-08T04:33:10;157039.75;;;7.14;82.76
7940;BME280;4015;48.888;9.226;2023-01-08T04:35:35;157033.41;;;7.11;82.71
7940;BME280;4015;48.888;9.226;2023-01-08T04:38:01;157039.75;;;7.14;82.98
7940;BME280;4015;48.888;9.226;2023-01-08T04:40:27;157035.94;;;7.12;83.02
7940;BME280;4015;48.888;9.226;2023-01-08T04:42:52;157004.06;;;6.99;83.18
7940;BME280;4015;48.888;9.226;2023-01-08T04:45:17;156900.84;;;6.58;85.09
7940;BME280;4015;48.888;9.226;2023-01-08T04:47:43;156856.25;;;6.40;86.65
7940;BME280;4015;48.888;9.226;2023-01-08T04:50:09;156838.44;;;6.33;87.37
7940;BME280;4015;48.888;9.226;2023-01-08T04:52:34;156840.97;;;6.34;87.92
7940;BME280;4015;48.888;9.226;2023-01-08T04:55:00;156847.38;;;6.37;87.57
7940;BME280;4015;48.888;9.226;2023-01-08T04:57:25;156853.72;;;6.39;87.35
7940;BME280;4015;48.888;9.226;2023-01-08T04:59:51;156877.94;;;6.49;87.19
7940;BME280;4015;48.888;9.226;2023-01-08T05:02:16;156897.03;;;6.57;86.25
7940;BME280;4015;48.888;9.226;2023-01-08T05:04:41;156937.81;;;6.73;85.32
7940;BME280;4015;48.888;9.226;2023-01-08T05:07:06;156967.09;;;6.85;84.38
7940;BME280;4015;48.888;9.226;2023-01-08T05:09:32;156984.97;;;6.92;83.97
7940;BME280;4015;48.888;9.226;2023-01-08T05:11:58;156998.94;;;6.97;83.98
7940;BME280;4015;48.888;9.226;2023-01-08T05:14:23;157047.41;;;7.17;83.13
7940;BME280;4015;48.888;9.226;2023-01-08T05:16:49;157086.91;;;7.33;82.60
7940;BME280;4015;48.888;9.226;2023-01-08T05:19:14;157111.16;;;7.42;81.96
7940;BME280;4015;48.888;9.226;2023-01-08T05:21:40;157151.91;;;7.58;81.36
7940;BME280;4015;48.888;9.226;2023-01-08T05:24:05;157153.19;;;7.59;81.64
7940;BME280;4015;48.888;9.226;2023-01-08T05:26:30;157230.97;;;7.90;80.76
7940;BME280;4015;48.888;9.226;2023-01-08T05:28:56;157320.25;;;8.26;80.05
7940;BME280;4015;48.888;9.226;2023-01-08T05:31:22;157422.31;;;8.67;79.58
7940;BME280;4015;48.888;9.226;2023-01-08T05:33:47;157474.66;;;8.87;79.11
7940;BME280;4015;48.888;9.226;2023-01-08T05:36:13;157529.50;;;9.09;78.63
7940;BME280;4015;48.888;9.226;2023-01-08T05:38:39;157565.22;;;9.24;77.96
7940;BME280;4015;48.888;9.226;2023-01-08T05:41:05;157571.63;;;9.26;79.17
7940;BME280;4015;48.888;9.226;2023-01-08T05:43:31;157566.53;;;9.24;80.79
7940;BME280;4015;48.888;9.226;2023-01-08T05:46:01;157543.56;;;9.15;80.09
7940;BME280;4015;48.888;9.226;2023-01-08T05:48:27;157552.50;;;9.18;80.61
7940;BME280;4015;48.888;9.226;2023-01-08T05:50:53;157546.09;;;9.16;82.82
7940;BME280;4015;48.888;9.226;2023-01-08T05:53:18;157525.69;;;9.08;84.09
7940;BME280;4015;48.888;9.226;2023-01-08T05:55:43;157484.84;;;8.91;86.23
7940;BME280;4015;48.888;9.226;2023-01-08T05:58:09;157452.94;;;8.79;87.15
7940;BME280;4015;48.888;9.226;2023-01-08T06:00:36;157441.50;;;8.74;87.39
7940;BME280;4015;48.888;9.226;2023-01-08T06:03:02;157427.44;;;8.69;88.07
7940;BME280;4015;48.888;9.226;2023-01-08T06:05:29;157405.72;;;8.60;88.88
7940;BME280;4015;48.888;9.226;2023-01-08T06:07:54;157393.03;;;8.55;89.08
7940;BME280;4015;48.888;9.226;2023-01-08T06:10:20;157395.56;;;8.56;88.44
7940;BME280;4015;48.888;9.226;2023-01-08T06:12:45;157386.59;;;8.52;89.78
7940;BME280;4015;48.888;9.226;2023-01-08T06:15:11;157395.56;;;8.56;88.76
7940;BME280;4015;48.888;9.226;2023-01-08T06:17:36;157395.56;;;8.56;88.55
7940;BME280;4015;48.888;9.226;2023-01-08T06:20:02;157405.72;;;8.60;87.93
7940;BME280;4015;48.888;9.226;2023-01-08T06:22:27;157403.19;;;8.59;88.73
7940;BME280;4015;48.888;9.226;2023-01-08T06:24:53;157409.59;;;8.61;88.22
7940;BME280;4015;48.888;9.226;2023-01-08T06:27:18;157414.69;;;8.63;87.51
7940;BME280;4015;48.888;9.226;2023-01-08T06:29:43;157396.84;;;8.56;88.46
7940;BME280;4015;48.888;9.226;2023-01-08T06:32:09;157394.28;;;8.55;88.27
7940;BME280;4015;48.888;9.226;2023-01-08T06:34:34;157413.41;;;8.63;87.35
7940;BME280;4015;48.888;9.226;2023-01-08T06:36:59;157389.16;;;8.53;88.30
7940;BME280;4015;48.888;9.226;2023-01-08T06:39:26;157410.88;;;8.62;87.27
7940;BME280;4015;48.888;9.226;2023-01-08T06:41:51;157404.47;;;8.59;87.00
7940;BME280;4015;48.888;9.226;2023-01-08T06:44:17;157415.97;;;8.64;86.59
7940;BME280;4015;48.888;9.226;2023-01-08T06:46:42;157426.19;;;8.68;86.32
7940;BME280;4015;48.888;9.226;2023-01-08T06:49:08;157438.91;;;8.73;86.26
7940;BME280;4015;48.888;9.226;2023-01-08T06:51:34;157452.94;;;8.79;85.91
7940;BME280;4015;48.888;9.226;2023-01-08T06:54:00;157451.66;;;8.78;86.26
7940;BME280;4015;48.888;9.226;2023-01-08T06:56:25;157447.84;;;8.77;86.75
7940;BME280;4015;48.888;9.226;2023-01-08T06:58:50;157484.84;;;8.91;84.52
7940;BME280;4015;48.888;9.226;2023-01-08T07:01:16;157477.19;;;8.88;85.02
7940;BME280;4015;48.888;9.226;2023-01-08T07:03:41;157484.84;;;8.91;85.10
7940;BME280;4015;48.888;9.226;2023-01-08T07:06:13;157483.56;;;8.91;84.98
7940;BME280;4015;48.888;9.226;2023-01-08T07:08:40;157483.56;;;8.91;84.58
7940;BME280;4015;48.888;9.226;2023-01-08T07:11:05;157477.19;;;8.88;84.63
7940;BME280;4015;48.888;9.226;2023-01-08T07:13:30;157502.69;;;8.99;84.19
7940;BME280;4015;48.888;9.226;2023-01-08T07:15:55;157493.78;;;8.95;84.56
7940;BME280;4015;48.888;9.226;2023-01-08T07:18:21;157509.09;;;9.01;83.97
7940;BME280;4015;48.888;9.226;2023-01-08T07:20:49;157504.00;;;8.99;83.81
7940;BME280;4015;48.888;9.226;2023-01-08T07:23:14;157502.69;;;8.99;84.03
7940;BME280;4015;48.888;9.226;2023-01-08T07:25:39;157539.72;;;9.13;83.44
7940;BME280;4015;48.888;9.226;2023-01-08T07:28:08;157515.47;;;9.04;83.53
7940;BME280;4015;48.888;9.226;2023-01-08T07:30:34;157506.56;;;9.00;84.03
7940;BME280;4015;48.888;9.226;2023-01-08T07:33:00;157512.91;;;9.03;84.50
7940;BME280;4015;48.888;9.226;2023-01-08T07:35:25;157510.38;;;9.02;85.07
7940;BME280;4015;48.888;9.226;2023-01-08T07:37:51;157491.25;;;8.94;85.99
7940;BME280;4015;48.888;9.226;2023-01-08T07:40:16;157487.44;;;8.93;86.65
7940;BME280;4015;48.888;9.226;2023-01-08T07:42:42;157466.97;;;8.84;87.30
7940;BME280;4015;48.888;9.226;2023-01-08T07:45:07;157464.44;;;8.83;88.55
7940;BME280;4015;48.888;9.226;2023-01-08T07:47:32;157441.50;;;8.74;89.30
7940;BME280;4015;48.888;9.226;2023-01-08T07:49:58;157426.19;;;8.68;89.58
7940;BME280;4015;48.888;9.226;2023-01-08T07:52:23;157421.03;;;8.66;89.51
7940;BME280;4015;48.888;9.226;2023-01-08T07:54:48;157423.59;;;8.67;89.96
7940;BME280;4015;48.888;9.226;2023-01-08T07:57:14;157427.44;;;8.69;89.31
7940;BME280;4015;48.888;9.226;2023-01-08T07:59:39;157427.44;;;8.69;90.11
7940;BME280;4015;48.888;9.226;2023-01-08T08:02:05;157418.50;;;8.65;89.83
7940;BME280;4015;48.888;9.226;2023-01-08T08:04:30;157423.59;;;8.67;89.62
7940;BME280;4015;48.888;9.226;2023-01-08T08:06:55;157410.88;;;8.62;90.11
7940;BME280;4015;48.888;9.226;2023-01-08T08:09:21;157419.78;;;8.65;89.79
7940;BME280;4015;48.888;9.226;2023-01-08T08:11:46;157413.41;;;8.63;90.99
7940;BME280;4015;48.888;9.226;2023-01-08T08:14:12;157394.28;;;8.55;91.29
7940;BME280;4015;48.888;9.226;2023-01-08T08:16:37;157403.19;;;8.59;91.93
7940;BME280;4015;48.888;9.226;2023-01-08T08:19:03;157394.28;;;8.55;91.80
7940;BME280;4015;48.888;9.226;2023-01-08T08:21:28;157375.13;;;8.48;92.87
7940;BME280;4015;48.888;9.226;2023-01-08T08:23:55;157371.31;;;8.46;92.29
7940;BME280;4015;48.888;9.226;2023-01-08T08:26:20;157376.38;;;8.48;92.39
7940;BME280;4015;48.888;9.226;2023-01-08T08:28:46;157363.66;;;8.43;92.74
7940;BME280;4015;48.888;9.226;2023-01-08T08:31:11;157371.31;;;8.46;92.37
7940;BME280;4015;48.888;9.226;2023-01-08T08:33:36;157353.44;;;8.39;92.54
7940;BME280;4015;48.888;9.226;2023-01-08T08:36:02;157344.50;;;8.35;93.16
7940;BME280;4015;48.888;9.226;2023-01-08T08:38:27;157352.19;;;8.38;92.64
7940;BME280;4015;48.888;9.226;2023-01-08T08:40:52;157348.38;;;8.37;91.90
7940;BME280;4015;48.888;9.226;2023-01-08T08:43:18;157353.44;;;8.39;91.93
7940;BME280;4015;48.888;9.226;2023-01-08T08:45:43;157367.47;;;8.45;91.95
7940;BME280;4015;48.888;9.226;2023-01-08T08:48:09;157363.66;;;8.43;91.71
7940;BME280;4015;48.888;9.226;2023-01-08T08:50:35;157364.94;;;8.44;91.57
7940;BME280;4015;48.888;9.226;2023-01-08T08:53:02;157366.22;;;8.44;92.11
7940;BME280;4015;48.888;9.226;2023-01-08T08:55:28;157359.81;;;8.42;92.24
7940;BME280;4015;48.888;9.226;2023-01-08T08:57:53;157352.19;;;8.38;92.29
7940;BME280;4015;48.888;9.226;2023-01-08T09:00:19;157358.53;;;8.41;92.85
7940;BME280;4015;48.888;9.226;2023-01-08T09:02:44;157358.53;;;8.41;93.29
7940;BME280;4015;48.888;9.226;2023-01-08T09:05:10;157363.66;;;8.43;92.32
7940;BME280;4015;48.888;9.226;2023-01-08T09:07:35;157352.19;;;8.38;92.61
7940;BME280;4015;48.888;9.226;2023-01-08T09:10:01;157353.44;;;8.39;93.08
7940;BME280;4015;48.888;9.226;2023-01-08T09:12:27;157347.09;;;8.36;93.19
7940;BME280;4015;48.888;9.226;2023-01-08T09:14:52;157347.09;;;8.36;92.81
7940;BME280;4015;48.888;9.226;2023-01-08T09:17:19;157345.81;;;8.36;92.53
7940;BME280;4015;48.888;9.226;2023-01-08T09:19:45;157356.00;;;8.40;92.62
7940;BME280;4015;48.888;9.226;2023-01-08T09:22:11;157366.22;;;8.44;92.56
7940;BME280;4015;48.888;9.226;2023-01-08T09:24:36;157372.56;;;8.47;91.64
7940;BME280;4015;48.888;9.226;2023-01-08T09:27:02;157381.53;;;8.50;91.30
7940;BME280;4015;48.888;9.226;2023-01-08T09:29:27;157390.41;;;8.54;90.47
7940;BME280;4015;48.888;9.226;2023-01-08T09:31:52;157407.00;;;8.60;89.70
7940;BME280;4015;48.888;9.226;2023-01-08T09:34:18;157405.72;;;8.60;89.99
7940;BME280;4015;48.888;9.226;2023-01-08T09:36:43;157398.09;;;8.57;90.50
7940;BME280;4015;48.888;9.226;2023-01-08T09:39:08;157415.97;;;8.64;89.70
7940;BME280;4015;48.888;9.226;2023-01-08T09:41:43;157426.19;;;8.68;90.05
7940;BME280;4015;48.888;9.226;2023-01-08T09:44:13;157442.75;;;8.75;88.86
7940;BME280;4015;48.888;9.226;2023-01-08T09:46:39;157465.72;;;8.84;88.61
7940;BME280;4015;48.888;9.226;2023-01-08T09:49:06;157475.94;;;8.88;88.85
7940;BME280;4015;48.888;9.226;2023-01-08T09:51:36;157469.53;;;8.85;88.79
7940;BME280;4015;48.888;9.226;2023-01-08T09:54:02;157473.38;;;8.87;88.34
7940;BME280;4015;48.888;9.226;2023-01-08T09:56:28;157492.50;;;8.95;87.42
7940;BME280;4015;48.888;9.226;2023-01-08T09:58:58;157504.00;;;8.99;86.94
7940;BME280;4015;48.888;9.226;2023-01-08T10:01:27;157515.47;;;9.04;86.99
7940;BME280;4015;48.888;9.226;2023-01-08T10:09:37;157544.81;;;9.15;86.02
7940;BME280;4015;48.888;9.226;2023-01-08T10:12:05;157571.63;;;9.26;86.38
7940;BME280;4015;48.888;9.226;2023-01-08T10:14:33;157597.13;;;9.36;85.01
7940;BME280;4015;48.888;9.226;2023-01-08T10:17:06;157583.13;;;9.31;85.09
7940;BME280;4015;48.888;9.226;2023-01-08T10:19:32;157574.19;;;9.27;85.49
7940;BME280;4015;48.888;9.226;2023-01-08T10:21:58;157615.03;;;9.43;84.93
7940;BME280;4015;48.888;9.226;2023-01-08T10:24:50;157604.81;;;9.39;84.78
7940;BME280;4015;48.888;9.226;2023-01-08T10:27:19;157649.50;;;9.57;84.52
7940;BME280;4015;48.888;9.226;2023-01-08T10:29:45;157649.50;;;9.57;84.39
7940;BME280;4015;48.888;9.226;2023-01-08T10:32:19;157629.09;;;9.49;84.72
7940;BME280;4015;48.888;9.226;2023-01-08T10:34:57;157634.19;;;9.51;83.59
7940;BME280;4015;48.888;9.226;2023-01-08T10:37:30;157650.78;;;9.58;83.35
7940;BME280;4015;48.888;9.226;2023-01-08T10:40:05;157678.88;;;9.69;83.77
7940;BME280;4015;48.888;9.226;2023-01-08T10:42:34;157708.25;;;9.81;83.07
7940;BME280;4015;48.888;9.226;2023-01-08T10:45:08;157680.13;;;9.69;83.51
7940;BME280;4015;48.888;9.226;2023-01-08T10:47:35;157724.84;;;9.87;83.39
7940;BME280;4015;48.888;9.226;2023-01-08T10:50:03;157718.41;;;9.85;83.16
7940;BME280;4015;48.888;9.226;2023-01-08T10:52:32;157692.91;;;9.75;82.30
7940;BME280;4015;48.888;9.226;2023-01-08T10:55:20;157686.50;;;9.72;83.50
7940;BME280;4015;48.888;9.226;2023-01-08T10:58:29;157677.59;;;9.68;82.48
7940;BME280;4015;48.888;9.226;2023-01-08T11:00:47;157709.50;;;9.81;83.12
7940;BME280;4015;48.888;9.226;2023-01-08T11:03:33;157720.97;;;9.86;82.87
7940;BME280;4015;48.888;9.226;2023-01-08T11:05:58;157754.16;;;9.99;82.47
7940;BME280;4015;48.888;9.226;2023-01-08T11:08:24;157759.28;;;10.01;82.48
7940;BME280;4015;48.888;9.226;2023-01-08T11:10:57;157759.28;;;10.01;81.53
7940;BME280;4015;48.888;9.226;2023-01-08T11:13:24;157789.94;;;10.13;82.08
7940;BME280;4015;48.888;9.226;2023-01-08T11:18:28;157802.72;;;10.18;80.41
7940;BME280;4015;48.888;9.226;2023-01-08T11:21:07;157801.41;;;10.18;81.67
7940;BME280;4015;48.888;9.226;2023-01-08T11:23:34;157856.41;;;10.40;80.98
7940;BME280;4015;48.888;9.226;2023-01-08T11:28:59;157846.16;;;10.36;80.42
7940;BME280;4015;48.888;9.226;2023-01-08T11:31:41;157837.25;;;10.32;80.34
7940;BME280;4015;48.888;9.226;2023-01-08T11:34:27;157851.31;;;10.38;80.51
7940;BME280;4015;48.888;9.226;2023-01-08T11:37:07;157902.38;;;10.58;79.43
7940;BME280;4015;48.888;9.226;2023-01-08T11:39:36;157894.69;;;10.55;80.01
7940;BME280;4015;48.888;9.226;2023-01-08T11:53:28;157973.91;;;10.87;78.37
7940;BME280;4015;48.888;9.226;2023-01-08T12:01:47;157941.97;;;10.74;78.00
7940;BME280;4015;48.888;9.226;2023-01-08T12:07:23;157843.63;;;10.35;79.32
7940;BME280;4015;48.888;9.226;2023-01-08T12:10:44;157852.56;;;10.38;80.14
7940;BME280;4015;48.888;9.226;2023-01-08T12:16:15;157858.94;;;10.41;80.45
7940;BME280;4015;48.888;9.226;2023-01-08T12:18:58;157839.78;;;10.33;79.66
7940;BME280;4015;48.888;9.226;2023-01-08T12:21:33;157864.03;;;10.43;80.04
7940;BME280;4015;48.888;9.226;2023-01-08T12:24:14;157870.47;;;10.45;79.44
7940;BME280;4015;48.888;9.226;2023-01-08T12:29:26;157883.25;;;10.50;79.08
7940;BME280;4015;48.888;9.226;2023-01-08T12:32:55;157901.13;;;10.58;79.21
7940;BME280;4015;48.888;9.226;2023-01-08T12:35:12;157875.53;;;10.47;79.41
7940;BME280;4015;48.888;9.226;2023-01-08T12:37:46;157869.19;;;10.45;79.62
7940;BME280;4015;48.888;9.226;2023-01-08T12:40:38;157865.38;;;10.43;79.55
7940;BME280;4015;48.888;9.226;2023-01-08T12:43:05;157862.75;;;10.42;78.66
7940;BME280;4015;48.888;9.226;2023-01-08T12:45:36;157871.72;;;10.46;79.53
7940;BME280;4015;48.888;9.226;2023-01-08T12:48:24;157867.91;;;10.44;79.23
7940;BME280;4015;48.888;9.226;2023-01-08T12:51:01;157850.03;;;10.37;79.66
7940;BME280;4015;48.888;9.226;2023-01-08T12:53:38;157888.34;;;10.52;79.52
7940;BME280;4015;48.888;9.226;2023-01-08T12:58:58;157908.75;;;10.61;78.14
7940;BME280;4015;48.888;9.226;2023-01-08T13:03:54;157885.78;;;10.51;78.29
7940;BME280;4015;48.888;9.226;2023-01-08T13:06:22;157931.78;;;10.70;77.63
7940;BME280;4015;48.888;9.226;2023-01-08T13:08:48;157944.56;;;10.75;77.47
7940;BME280;4015;48.888;9.226;2023-01-08T13:11:29;157963.72;;;10.83;77.56
7940;BME280;4015;48.888;9.226;2023-01-08T13:13:58;157956.03;;;10.79;78.11
7940;BME280;4015;48.888;9.226;2023-01-08T13:16:24;157950.94;;;10.77;77.34
7940;BME280;4015;48.888;9.226;2023-01-08T13:19:01;157941.97;;;10.74;77.49
7940;BME280;4015;48.888;9.226;2023-01-08T13:21:41;157936.88;;;10.72;78.25
7940;BME280;4015;48.888;9.226;2023-01-08T13:24:25;157934.31;;;10.71;77.87
7940;BME280;4015;48.888;9.226;2023-01-08T13:26:54;157976.50;;;10.88;77.58
7940;BME280;4015;48.888;9.226;2023-01-08T13:29:36;157939.41;;;10.73;77.94
7940;BME280;4015;48.888;9.226;2023-01-08T13:32:03;157910.03;;;10.61;77.87
7940;BME280;4015;48.888;9.226;2023-01-08T13:34:38;157865.38;;;10.43;78.81
7940;BME280;4015;48.888;9.226;2023-01-08T13:37:04;157904.94;;;10.59;77.97
7940;BME280;4015;48.888;9.226;2023-01-08T13:39:39;157950.94;;;10.77;78.54
7940;BME280;4015;48.888;9.226;2023-01-08T13:44:41;157926.63;;;10.68;79.70
7940;BME280;4015;48.888;9.226;2023-01-08T13:47:30;157871.72;;;10.46;79.28
7940;BME280;4015;48.888;9.226;2023-01-08T13:49:56;157873.00;;;10.46;79.38
7940;BME280;4015;48.888;9.226;2023-01-08T13:52:29;157883.25;;;10.50;79.63
7940;BME280;4015;48.888;9.226;2023-01-08T13:54:55;157919.00;;;10.65;79.88
7940;BME280;4015;48.888;9.226;2023-01-08T13:57:21;157938.13;;;10.72;78.81
7940;BME280;4015;48.888;9.226;2023-01-08T13:59:51;157956.03;;;10.79;78.67
7940;BME280;4015;48.888;9.226;2023-01-08T14:02:40;157976.50;;;10.88;77.64
7940;BME280;4015;48.888;9.226;2023-01-08T14:05:37;157943.25;;;10.74;77.92
7940;BME280;4015;48.888;9.226;2023-01-08T14:08:03;157957.28;;;10.80;79.05
7940;BME280;4015;48.888;9.226;2023-01-08T14:10:29;157897.28;;;10.56;77.63
7940;BME280;4015;48.888;9.226;2023-01-08T14:13:05;157958.56;;;10.80;77.49
7940;BME280;4015;48.888;9.226;2023-01-08T14:15:32;157995.66;;;10.95;77.27
7940;BME280;4015;48.888;9.226;2023-01-08T14:18:00;157976.50;;;10.88;77.22
7940;BME280;4015;48.888;9.226;2023-01-08T14:20:30;157999.47;;;10.97;76.83
7940;BME280;4015;48.888;9.226;2023-01-08T14:22:56;157999.47;;;10.97;76.76
7940;BME280;4015;48.888;9.226;2023-01-08T14:25:22;158002.03;;;10.98;76.78
7940;BME280;4015;48.888;9.226;2023-01-08T14:28:00;158008.44;;;11.00;78.33
7940;BME280;4015;48.888;9.226;2023-01-08T14:30:26;158009.72;;;11.01;77.19
7940;BME280;4015;48.888;9.226;2023-01-08T14:32:53;158042.94;;;11.14;77.16
7940;BME280;4015;48.888;9.226;2023-01-08T14:35:24;158002.03;;;10.98;76.79
7940;BME280;4015;48.888;9.226;2023-01-08T14:37:50;157991.81;;;10.94;77.58
7940;BME280;4015;48.888;9.226;2023-01-08T14:40:16;157973.91;;;10.87;76.93